createdAt,value
2023-02-20T00:01:28.027Z,3.20
2023-02-20T00:04:36.148Z,2.80
2023-02-20T00:07:44.609Z,2.70
2023-02-20T00:10:52.557Z,3.00
2023-02-20T00:14:00.739Z,3.60
2023-02-20T00:17:08.741Z,3.10
2023-02-20T00:20:20.455Z,2.90
2023-02-20T00:23:28.579Z,3.40
2023-02-20T00:26:36.873Z,3.10
2023-02-20T00:29:47.309Z,3.60
2023-02-20T00:32:57.885Z,3.40
2023-02-20T00:36:07.096Z,3.10
2023-02-20T00:39:15.867Z,3.40
2023-02-20T00:42:23.760Z,3.40
2023-02-20T00:45:31.888Z,3.40
2023-02-20T00:48:40.516Z,3.50
2023-02-20T00:51:49.229Z,3.70
2023-02-20T00:54:57.440Z,3.80
2023-02-20T00:58:05.692Z,4.30
2023-02-20T01:05:13.274Z,3.60
2023-02-20T01:08:21.785Z,3.70
2023-02-20T01:11:30.836Z,3.80
2023-02-20T01:14:39.461Z,4.40
2023-02-20T01:17:47.768Z,3.70
2023-02-20T01:20:55.713Z,3.80
2023-02-20T01:24:03.912Z,4.10
2023-02-20T01:27:11.940Z,4.10
2023-02-20T01:30:20.536Z,3.90
2023-02-20T01:33:29.969Z,4.00
2023-02-20T01:36:38.829Z,4.10
2023-02-20T01:39:47.964Z,4.00
2023-02-20T01:42:56.273Z,4.20
2023-02-20T01:46:49.034Z,3.80
2023-02-20T01:50:03.488Z,4.10
2023-02-20T01:53:15.602Z,4.10
2023-02-20T01:56:23.905Z,3.90
2023-02-20T01:59:38.156Z,4.40
2023-02-20T02:02:53.805Z,4.10
2023-02-20T02:06:06.041Z,4.30
2023-02-20T02:09:25.494Z,4.10
2023-02-20T02:12:34.584Z,4.30
2023-02-20T02:15:42.893Z,3.20
2023-02-20T02:19:04.982Z,3.70
2023-02-20T02:22:48.268Z,4.20
2023-02-20T02:26:10.147Z,3.70
2023-02-20T02:29:53.165Z,4.20
2023-02-20T02:33:43.197Z,3.70
2023-02-20T02:37:04.922Z,4.10
2023-02-20T02:40:24.365Z,4.00
2023-02-20T02:43:42.395Z,4.10
2023-02-20T02:47:02.499Z,3.80
2023-02-20T02:50:18.225Z,3.70
2023-02-20T02:53:26.341Z,4.10
2023-02-20T02:56:41.373Z,4.00
2023-02-20T02:59:51.588Z,4.00
2023-02-20T03:03:06.607Z,3.90
2023-02-20T03:06:23.360Z,3.70
2023-02-20T03:09:35.759Z,4.00
2023-02-20T03:12:50.899Z,4.20
2023-02-20T03:16:00.986Z,4.10
2023-02-20T03:19:15.974Z,4.00
2023-02-20T03:22:30.327Z,4.50
2023-02-20T03:25:45.218Z,4.20
2023-02-20T03:28:59.252Z,4.20
2023-02-20T03:32:31.717Z,4.40
2023-02-20T03:36:00.793Z,4.70
2023-02-20T03:39:33.212Z,4.70
2023-02-20T03:43:06.315Z,4.20
2023-02-20T03:46:19.755Z,4.00
2023-02-20T03:49:36.910Z,4.20
2023-02-20T03:52:45.252Z,4.20
2023-02-20T03:55:56.478Z,4.50
2023-02-20T03:59:14.473Z,4.40
2023-02-20T04:02:28.174Z,4.20
2023-02-20T04:05:42.699Z,4.40
2023-02-20T04:08:59.069Z,4.70
2023-02-20T04:12:15.573Z,4.40
2023-02-20T04:15:25.609Z,4.00
2023-02-20T04:18:36.222Z,4.00
2023-02-20T04:21:51.255Z,3.90
2023-02-20T04:25:07.787Z,3.70
2023-02-20T04:28:18.454Z,3.80
2023-02-20T04:31:28.517Z,3.80
2023-02-20T04:34:38.761Z,4.30
2023-02-20T04:37:46.755Z,4.20
2023-02-20T04:40:56.087Z,4.50
2023-02-20T04:44:21.916Z,4.20
2023-02-20T04:47:30.664Z,3.80
2023-02-20T04:50:39.495Z,3.60
2023-02-20T04:53:48.212Z,4.00
2023-02-20T04:56:56.797Z,3.70
2023-02-20T05:00:06.418Z,3.90
2023-02-20T05:03:14.693Z,4.10
2023-02-20T05:06:22.628Z,4.40
2023-02-20T05:09:30.682Z,3.80
2023-02-20T05:12:38.526Z,4.20
2023-02-20T05:15:46.329Z,3.90
2023-02-20T05:18:54.578Z,4.00
2023-02-20T05:22:21.581Z,3.60
2023-02-20T05:25:29.567Z,3.70
2023-02-20T05:28:37.464Z,4.50
2023-02-20T05:31:46.018Z,4.70
2023-02-20T05:34:55.890Z,4.80
2023-02-20T05:41:11.096Z,3.70
2023-02-20T05:44:19.598Z,4.40
2023-02-20T05:47:28.151Z,4.60
2023-02-20T05:50:36.388Z,4.30
2023-02-20T05:53:44.204Z,4.30
2023-02-20T05:56:52.970Z,4.20
2023-02-20T06:00:00.987Z,4.40
2023-02-20T06:03:11.354Z,4.60
2023-02-20T06:06:20.067Z,4.40
2023-02-20T06:09:28.408Z,4.00
2023-02-20T06:12:36.337Z,4.00
2023-02-20T06:15:44.405Z,3.80
2023-02-20T06:18:52.218Z,4.20
2023-02-20T06:22:00.717Z,4.40
2023-02-20T06:25:09.370Z,4.10
2023-02-20T06:28:17.398Z,4.70
2023-02-20T06:31:28.998Z,5.30
2023-02-20T06:34:37.248Z,5.90
2023-02-20T06:37:45.277Z,4.50
2023-02-20T06:40:53.087Z,4.60
2023-02-20T06:44:00.979Z,4.50
2023-02-20T06:47:10.712Z,5.00
2023-02-20T06:50:19.030Z,3.70
2023-02-20T06:53:27.368Z,3.60
2023-02-20T06:56:37.340Z,3.90
2023-02-20T06:59:50.241Z,3.60
2023-02-20T07:02:58.164Z,3.90
2023-02-20T07:06:06.543Z,3.60
2023-02-20T07:09:14.582Z,3.80
2023-02-20T07:12:22.514Z,4.10
2023-02-20T07:15:30.214Z,3.40
2023-02-20T07:18:38.279Z,3.70
2023-02-20T07:21:47.364Z,3.80
2023-02-20T07:24:57.001Z,3.70
2023-02-20T07:28:08.027Z,3.30
2023-02-20T07:31:16.432Z,3.20
2023-02-20T07:34:24.317Z,3.60
2023-02-20T07:37:32.511Z,4.80
2023-02-20T07:40:40.563Z,3.80
2023-02-20T07:43:48.822Z,4.30
2023-02-20T07:46:56.597Z,3.80
2023-02-20T07:50:06.589Z,4.00
2023-02-20T07:56:24.321Z,3.20
2023-02-20T07:59:32.230Z,3.40
2023-02-20T08:02:40.525Z,3.20
2023-02-20T08:05:50.095Z,3.30
2023-02-20T08:08:58.328Z,3.50
2023-02-20T08:12:06.411Z,5.50
2023-02-20T08:15:15.149Z,6.10
2023-02-20T08:18:24.006Z,5.90
2023-02-20T08:21:32.118Z,4.40
2023-02-20T08:24:39.923Z,4.30
2023-02-20T08:27:50.032Z,5.10
2023-02-20T08:30:58.146Z,5.60
2023-02-20T08:34:06.168Z,3.90
2023-02-20T08:37:13.858Z,4.70
2023-02-20T08:40:22.282Z,4.90
2023-02-20T08:43:30.933Z,5.10
2023-02-20T08:46:39.112Z,5.40
2023-02-20T08:49:49.827Z,4.90
2023-02-20T08:52:57.828Z,4.80
2023-02-20T08:56:06.890Z,4.90
2023-02-20T08:59:14.896Z,5.20
2023-02-20T09:02:28.824Z,5.00
2023-02-20T09:05:39.327Z,4.40
2023-02-20T09:08:47.572Z,4.30
2023-02-20T09:11:55.421Z,4.80
2023-02-20T09:15:04.107Z,5.30
2023-02-20T09:18:15.603Z,4.70
2023-02-20T09:21:24.300Z,4.80
2023-02-20T09:24:34.686Z,5.20
2023-02-20T09:27:42.581Z,4.40
2023-02-20T09:30:54.829Z,5.00
2023-02-20T09:34:04.556Z,4.50
2023-02-20T09:40:22.907Z,4.50
2023-02-20T09:43:46.882Z,4.80
2023-02-20T09:46:57.965Z,4.80
2023-02-20T09:50:14.894Z,5.90
2023-02-20T09:53:32.236Z,4.80
2023-02-20T09:56:46.063Z,5.10
2023-02-20T10:00:05.223Z,4.40
2023-02-20T10:03:26.311Z,4.70
2023-02-20T10:06:36.927Z,4.50
2023-02-20T10:09:45.374Z,4.50
2023-02-20T10:13:16.702Z,4.70
2023-02-20T10:16:38.862Z,4.60
2023-02-20T10:19:58.056Z,5.30
2023-02-20T10:23:21.341Z,4.30
2023-02-20T10:26:35.147Z,4.80
2023-02-20T10:29:46.679Z,5.00
2023-02-20T10:33:02.956Z,4.60
2023-02-20T10:36:18.400Z,4.70
2023-02-20T10:39:30.149Z,5.00
2023-02-20T10:42:50.014Z,4.60
2023-02-20T10:46:12.580Z,5.10
2023-02-20T10:49:31.587Z,5.10
2023-02-20T10:52:49.057Z,5.10
2023-02-20T10:56:07.268Z,4.90
2023-02-20T10:59:24.242Z,4.10
2023-02-20T11:02:38.683Z,4.90
2023-02-20T11:05:55.149Z,5.30
2023-02-20T11:09:03.076Z,5.00
2023-02-20T11:12:26.073Z,4.10
2023-02-20T11:15:37.336Z,5.30
2023-02-20T11:18:45.693Z,5.80
2023-02-20T11:21:55.352Z,4.40
2023-02-20T11:25:33.834Z,5.10
2023-02-20T11:29:05.210Z,4.50
2023-02-20T11:32:37.147Z,5.10
2023-02-20T11:35:47.523Z,4.70
2023-02-20T11:39:03.886Z,4.60
2023-02-20T11:42:21.244Z,4.40
2023-02-20T11:45:31.658Z,4.10
2023-02-20T11:48:41.765Z,4.20
2023-02-20T11:51:51.721Z,4.80
2023-02-20T11:55:25.339Z,4.70
2023-02-20T11:58:34.946Z,4.50
2023-02-20T12:01:45.099Z,4.10
2023-02-20T12:05:16.825Z,5.00
2023-02-20T12:08:49.057Z,4.90
2023-02-20T12:11:58.923Z,4.60
2023-02-20T12:18:42.369Z,4.70
2023-02-20T12:22:11.799Z,4.70
2023-02-20T12:25:35.966Z,4.70
2023-02-20T12:28:58.354Z,4.40
2023-02-20T12:32:31.279Z,4.30
2023-02-20T12:35:52.023Z,4.40
2023-02-20T12:39:07.998Z,4.30
2023-02-20T12:42:30.246Z,4.60
2023-02-20T12:45:51.144Z,3.80
2023-02-20T12:49:27.758Z,4.00
2023-02-20T12:52:57.774Z,4.40
2023-02-20T12:56:27.408Z,4.20
2023-02-20T12:59:47.133Z,4.50
2023-02-20T13:03:07.429Z,4.00
2023-02-20T13:06:20.075Z,4.10
2023-02-20T13:09:34.418Z,3.80
2023-02-20T13:12:42.198Z,4.00
2023-02-20T13:16:03.743Z,4.40
2023-02-20T13:19:27.858Z,3.70
2023-02-20T13:22:36.463Z,3.70
2023-02-20T13:25:48.755Z,4.00
2023-02-20T13:29:12.018Z,3.70
2023-02-20T13:32:33.114Z,3.60
2023-02-20T13:35:55.680Z,4.10
2023-02-20T13:39:49.416Z,3.50
2023-02-20T13:43:31.362Z,3.40
2023-02-20T13:47:02.762Z,3.30
2023-02-20T13:50:36.909Z,3.30
2023-02-20T13:53:47.369Z,3.10
2023-02-20T13:57:03.191Z,3.30
2023-02-20T14:00:29.639Z,3.40
2023-02-20T14:03:39.822Z,3.30
2023-02-20T14:06:58.726Z,3.20
2023-02-20T14:10:18.800Z,3.70
2023-02-20T14:13:39.798Z,3.50
2023-02-20T14:16:48.651Z,3.70
2023-02-20T14:20:13.824Z,5.10
2023-02-20T14:23:31.231Z,4.20
2023-02-20T14:26:39.479Z,3.70
2023-02-20T14:29:47.631Z,3.60
2023-02-20T14:32:58.548Z,4.00
2023-02-20T14:36:59.600Z,3.80
2023-02-20T14:40:16.196Z,4.00
2023-02-20T14:43:27.814Z,3.70
2023-02-20T14:46:38.576Z,3.60
2023-02-20T14:49:49.204Z,4.20
2023-02-20T14:53:16.981Z,3.90
2023-02-20T14:56:26.377Z,4.30
2023-02-20T14:59:38.929Z,4.60
2023-02-20T15:02:55.371Z,4.10
2023-02-20T15:06:08.495Z,3.90
2023-02-20T15:09:22.646Z,3.80
2023-02-20T15:12:38.629Z,3.70
2023-02-20T15:15:53.643Z,3.70
2023-02-20T15:19:03.026Z,4.20
2023-02-20T15:22:30.181Z,3.90
2023-02-20T15:25:38.523Z,3.80
2023-02-20T15:28:46.851Z,4.10
2023-02-20T15:32:02.818Z,3.80
2023-02-20T15:35:18.680Z,3.50
2023-02-20T15:38:31.545Z,4.50
2023-02-20T15:41:40.047Z,4.50
2023-02-20T15:44:48.461Z,5.00
2023-02-20T15:48:01.387Z,5.10
2023-02-20T15:51:10.809Z,5.10
2023-02-20T15:54:23.027Z,5.00
2023-02-20T15:57:31.073Z,5.00
2023-02-20T16:00:39.656Z,5.30
2023-02-20T16:03:53.369Z,4.60
2023-02-20T16:07:03.190Z,4.70
2023-02-20T16:10:12.947Z,4.70
2023-02-20T16:16:42.577Z,4.10
2023-02-20T16:19:51.001Z,4.50
2023-02-20T16:23:00.127Z,5.50
2023-02-20T16:26:09.134Z,6.50
2023-02-20T16:29:26.386Z,11.10
2023-02-20T16:32:35.273Z,10.60
2023-02-20T16:35:44.268Z,10.60
2023-02-20T16:38:53.975Z,7.70
2023-02-20T16:42:05.035Z,8.00
2023-02-20T16:45:19.206Z,8.60
2023-02-20T16:48:27.510Z,8.90
2023-02-20T16:51:36.025Z,8.90
2023-02-20T16:54:46.621Z,8.30
2023-02-20T16:57:54.874Z,9.20
2023-02-20T17:01:02.776Z,7.90
2023-02-20T17:04:14.825Z,6.50
2023-02-20T17:07:23.136Z,5.60
2023-02-20T17:10:32.080Z,4.80
2023-02-20T17:13:40.124Z,5.60
2023-02-20T17:16:53.134Z,5.80
2023-02-20T17:20:02.363Z,6.20
2023-02-20T17:23:10.906Z,6.10
2023-02-20T17:26:19.408Z,6.50
2023-02-20T17:29:28.372Z,6.30
2023-02-20T17:32:36.262Z,6.80
2023-02-20T17:35:48.038Z,4.80
2023-02-20T17:38:56.002Z,7.10
2023-02-20T17:42:06.058Z,10.40
2023-02-20T17:45:16.328Z,13.90
2023-02-20T17:48:25.314Z,14.30
2023-02-20T17:51:33.435Z,11.20
2023-02-20T17:54:50.453Z,11.30
2023-02-20T17:58:00.119Z,9.30
2023-02-20T18:01:11.040Z,9.60
2023-02-20T18:04:21.546Z,9.50
2023-02-20T18:07:33.703Z,8.10
2023-02-20T18:10:42.619Z,9.00
2023-02-20T18:13:56.800Z,7.20
2023-02-20T18:17:06.070Z,9.70
2023-02-20T18:20:17.242Z,9.00
2023-02-20T18:23:25.111Z,9.90
2023-02-20T18:26:33.629Z,9.20
2023-02-20T18:29:42.097Z,8.00
2023-02-20T18:32:50.876Z,7.70
2023-02-20T18:36:07.855Z,7.10
2023-02-20T18:39:17.141Z,7.50
2023-02-20T18:42:25.242Z,9.00
2023-02-20T18:45:34.121Z,9.60
2023-02-20T18:48:44.237Z,9.00
2023-02-20T18:51:55.432Z,8.30
2023-02-20T18:55:08.032Z,9.50
2023-02-20T18:58:17.172Z,8.90
2023-02-20T19:01:26.430Z,8.30
2023-02-20T19:04:34.949Z,8.80
2023-02-20T19:07:46.801Z,7.20
2023-02-20T19:10:55.251Z,8.00
2023-02-20T19:14:04.691Z,8.50
2023-02-20T19:17:16.001Z,8.20
2023-02-20T19:20:28.900Z,9.30
2023-02-20T19:23:38.842Z,9.70
2023-02-20T19:26:47.282Z,9.30
2023-02-20T19:29:59.147Z,9.00
2023-02-20T19:33:07.668Z,8.30
2023-02-20T19:36:16.759Z,7.50
2023-02-20T19:39:25.436Z,8.40
2023-02-20T19:42:34.285Z,8.80
2023-02-20T19:45:42.527Z,7.80
2023-02-20T19:48:51.316Z,7.10
2023-02-20T19:52:00.233Z,7.50
2023-02-20T19:55:10.982Z,6.90
2023-02-20T19:58:19.915Z,7.00
2023-02-20T20:01:29.671Z,6.80
2023-02-20T20:04:39.019Z,6.60
2023-02-20T20:07:47.662Z,6.90
2023-02-20T20:10:56.699Z,7.40
2023-02-20T20:14:05.403Z,6.70
2023-02-20T20:17:14.228Z,7.10
2023-02-20T20:20:25.097Z,7.30
2023-02-20T20:23:34.841Z,7.20
2023-02-20T20:26:43.917Z,6.90
2023-02-20T20:29:52.726Z,6.90
2023-02-20T20:33:01.607Z,7.00
2023-02-20T20:36:11.485Z,9.70
2023-02-20T20:42:29.833Z,8.30
2023-02-20T20:45:38.624Z,8.30
2023-02-20T20:48:48.133Z,8.80
2023-02-20T20:51:56.577Z,8.20
2023-02-20T20:55:05.697Z,9.40
2023-02-20T20:58:14.771Z,10.00
2023-02-20T21:01:23.443Z,8.90
2023-02-20T21:04:32.302Z,9.10
2023-02-20T21:07:43.644Z,8.90
2023-02-20T21:10:52.482Z,9.20
2023-02-20T21:14:00.975Z,10.30
2023-02-20T21:17:09.218Z,9.10
2023-02-20T21:20:23.013Z,9.60
2023-02-20T21:23:31.731Z,9.50
2023-02-20T21:26:40.208Z,9.00
2023-02-20T21:29:49.747Z,9.00
2023-02-20T21:32:58.827Z,10.30
2023-02-20T21:36:07.957Z,10.90
2023-02-20T21:39:18.121Z,12.40
2023-02-20T21:42:45.022Z,10.90
2023-02-20T21:45:53.794Z,11.00
2023-02-20T21:49:02.968Z,10.40
2023-02-20T21:52:12.117Z,11.20
2023-02-20T21:55:22.230Z,11.20
2023-02-20T21:58:48.308Z,11.50
2023-02-20T22:01:57.389Z,12.00
2023-02-20T22:05:05.763Z,15.00
2023-02-20T22:08:31.894Z,15.40
2023-02-20T22:11:58.127Z,13.80
2023-02-20T22:15:25.759Z,13.20
2023-02-20T22:18:51.554Z,12.40
2023-02-20T22:22:20.551Z,10.40
2023-02-20T22:25:46.880Z,9.30
2023-02-20T22:29:13.695Z,9.00
2023-02-20T22:32:39.617Z,9.10
2023-02-20T22:36:05.524Z,9.00
2023-02-20T22:39:35.312Z,8.50
2023-02-20T22:46:28.621Z,7.70
2023-02-20T22:49:54.407Z,7.60
2023-02-20T22:53:20.724Z,7.60
2023-02-20T22:56:46.874Z,7.70
2023-02-20T23:00:12.973Z,6.00
2023-02-20T23:03:38.661Z,5.00
2023-02-20T23:07:04.233Z,4.40
2023-02-20T23:10:32.227Z,4.10
2023-02-20T23:13:58.371Z,3.40
2023-02-20T23:17:35.041Z,3.00
2023-02-20T23:21:02.247Z,3.10
2023-02-20T23:24:28.223Z,2.80
2023-02-20T23:27:53.976Z,3.20
2023-02-20T23:31:20.540Z,3.00
2023-02-20T23:34:48.081Z,3.00
2023-02-20T23:38:13.934Z,3.00
2023-02-20T23:41:39.653Z,2.60
2023-02-20T23:45:06.487Z,2.90
2023-02-20T23:48:34.159Z,3.10
2023-02-20T23:52:08.123Z,2.70
2023-02-20T23:55:41.145Z,2.90
2023-02-20T23:59:07.063Z,2.90
